Accueil
METAR-TAF:

METAR-TAF

Aéroports :

Base aérienne

Niederstetten, Allemagne

latitude: 49-24N, longitude: 009-58E, altitude: 468 m

Observation

Le bulletin a été fait il y a 50 minutes, à 19:20 UTC
Vent calme
Température 9°C
Humidité 87%
Pression 1031 hPa
Visibilité 10 km ou plus
Nuages fragmentés à une hauteur de 30000 ft

METAR: ETHN 061920Z 00000KT 9999 BKN300 09/07 Q1031 BLU+BLU+

Heure: 22:10 (20:10 UTC)

Prévision

Le bulletin a été fait il y a 55 minutes, à 19:15 UTC
Prévision valable du 06 à 20 UTC au 07 à 05 UTC
Vent 3 kt de direction variable
Visibilité 10 km ou plus
Nuages fragmentés à une hauteur de 25000 ft

TAF: ETHN 061915Z 0620/0705 VRB03KT 9999 NSW BKN250

Observations et prévisions météorologiques de plus de 4000 aéroports (messages METAR et TAF).

Les stations disponibles sont représentées par des disques jaunes et rouges sur la carte.

Passer la souris dessus pour voir le nom de la station.

Cliquer dessus pour voir les observations et prévisions météorologiques.

Pour changer de carte: cliquez sur les boutons verts avec une croix noire pour zoomer, sur le bouton vert avec un tiret pour effectuer un zoom arrière, ou sur les flèches vertes pour les cartes adjacentes.


METAR-TAF: